< < Back
Terminal Aerodrome Forecast


Current Version              Previous Versions:   1  2  3  4  5  6  7  8  9  

Terminal Aerodrome Forecast

431
FTUS42 KTAE 251100
TAFVLD
TAF
KVLD 251131Z 2512/2612 00000KT 4SM SHRA BR VCTS OVC006CB
     FM251500 02005KT P6SM SHRA BKN012 OVC040
     FM252000 03006KT P6SM RA OVC012
     FM260400 36009KT P6SM -RA FEW015 OVC025
     FM261000 36007KT P6SM VCSH FEW025 OVC040=

Latest METAR

399
SAUS70 KWBC 261000 RRB
MTRVLD
METAR KVLD 260953Z AUTO 36008KT 5SM -RA BR SCT008 BKN036 OVC080 09/08
A2999 RMK AO2 SLP164 P0004 T00890078


USA.gov is the U.S. government's official web portal to all federal, state and local government web resources and services.